Time;durP1;ratioP1;P1;durP2;ratioP2;P2;SDS_P1;SDS_P2;PMS_P1;PMS_P2;Temp;Humidity;BMP_temperature;BMP_pressure;BME280_temperature;BME280_humidity;BME280_pressure;Samples;Min_cycle;Max_cycle;Signal;HPM_P1;HPM_P2
2022/06/15 06:21:35;;;;;;;4.47;2.00;;;;;;;14.26;69.61;98464.47;1867551;75;26401;-59
2022/06/15 06:24:02;;;;;;;3.60;1.87;;;;;;;14.26;69.07;98467.16;1820776;78;20992;-63
2022/06/15 06:26:31;;;;;;;5.83;1.92;;;;;;;14.32;68.52;98470.02;1803545;78;21292;-64
2022/06/15 06:28:59;;;;;;;6.20;2.17;;;;;;;14.44;68.21;98466.83;1774926;78;21066;-63
2022/06/15 06:31:31;;;;;;;3.92;2.17;;;;;;;14.58;68.04;98464.31;1804992;78;21058;-59
2022/06/15 06:33:58;;;;;;;5.15;2.35;;;;;;;14.73;67.42;98458.58;1776552;79;21475;-61
2022/06/15 06:36:32;;;;;;;5.97;1.87;;;;;;;14.85;67.39;98467.47;1775194;79;20970;-60
2022/06/15 06:39:01;;;;;;;4.47;1.98;;;;;;;14.96;66.67;98469.61;1774318;80;21107;-59
2022/06/15 06:41:29;;;;;;;3.35;2.00;;;;;;;15.07;65.22;98460.16;1798677;79;20937;-62
2022/06/15 06:43:55;;;;;;;5.75;1.95;;;;;;;15.15;64.43;98464.57;1801593;78;20937;-59
2022/06/15 06:46:22;;;;;;;7.45;2.20;;;;;;;15.16;63.43;98462.13;1810498;79;21007;-60
2022/06/15 06:48:51;;;;;;;5.65;2.27;;;;;;;15.17;63.72;98463.73;1804056;78;21423;-59
2022/06/15 06:51:20;;;;;;;4.50;2.10;;;;;;;15.23;62.35;98461.14;1816165;79;21810;-58
2022/06/15 06:53:49;;;;;;;6.10;2.58;;;;;;;15.27;61.30;98464.80;1803924;78;21105;-60
2022/06/15 06:56:16;;;;;;;3.62;2.02;;;;;;;15.33;62.33;98456.84;1791228;79;20953;-57
2022/06/15 06:58:44;;;;;;;7.28;2.37;;;;;;;15.43;63.47;98460.60;1806483;78;20888;-62
2022/06/15 07:01:11;;;;;;;4.45;1.92;;;;;;;15.49;59.98;98457.52;1805427;79;21563;-63
2022/06/15 07:03:39;;;;;;;5.40;1.92;;;;;;;15.46;60.27;98450.57;1801125;79;21815;-58
2022/06/15 07:06:09;;;;;;;6.35;2.17;;;;;;;15.50;60.90;98451.53;1799488;79;20985;-60
2022/06/15 07:08:38;;;;;;;4.15;1.82;;;;;;;15.60;60.08;98458.02;1799553;79;21518;-60
2022/06/15 07:11:11;;;;;;;4.08;1.72;;;;;;;15.70;59.65;98455.05;1809891;79;21692;-61
2022/06/15 07:13:42;;;;;;;6.40;1.80;;;;;;;15.82;58.89;98463.91;1799669;79;21503;-58
2022/06/15 07:16:11;;;;;;;5.70;2.10;;;;;;;15.93;58.98;98459.26;1795958;79;21712;-63
2022/06/15 07:18:39;;;;;;;8.43;2.15;;;;;;;15.95;57.33;98459.73;1796958;79;21052;-64
2022/06/15 07:21:08;;;;;;;4.58;2.02;;;;;;;15.95;58.23;98455.69;1789815;79;20957;-60
2022/06/15 07:23:36;;;;;;;2.77;1.82;;;;;;;16.03;58.10;98454.13;1786730;79;21017;-63
2022/06/15 07:26:04;;;;;;;5.58;1.92;;;;;;;16.07;58.75;98450.48;1836007;77;20890;-63
2022/06/15 07:28:32;;;;;;;6.92;2.20;;;;;;;16.20;55.36;98454.94;1820763;77;21168;-63
2022/06/15 07:30:59;;;;;;;5.22;1.80;;;;;;;16.29;54.52;98458.48;1821121;77;20922;-62
2022/06/15 07:33:26;;;;;;;6.75;1.70;;;;;;;16.33;55.71;98457.28;1819946;77;21120;-61
2022/06/15 07:35:52;;;;;;;4.10;1.80;;;;;;;16.39;53.92;98452.75;1830285;77;21498;-60
2022/06/15 07:38:19;;;;;;;6.53;1.70;;;;;;;16.44;54.79;98453.95;1827467;77;20984;-59
2022/06/15 07:40:49;;;;;;;6.25;1.75;;;;;;;16.53;53.73;98454.56;1827807;77;21127;-60
2022/06/15 07:43:21;;;;;;;5.30;1.92;;;;;;;16.55;52.69;98460.44;1808683;77;21456;-63
2022/06/15 07:45:47;;;;;;;4.25;1.60;;;;;;;16.63;53.57;98461.02;1807174;79;21096;-61
2022/06/15 07:50:59;;;;;;;;;;;;;;;16.64;51.63;98457.18;1838813;77;21206;-60
2022/06/15 07:53:28;;;;;;;4.97;1.80;;;;;;;16.53;52.62;98459.97;1826469;77;22398;-61
2022/06/15 07:55:54;;;;;;;3.12;1.57;;;;;;;16.57;51.54;98455.50;1829876;77;20917;-60
2022/06/15 07:58:26;;;;;;;4.78;2.00;;;;;;;16.73;51.31;98463.38;1820955;77;21067;-59
2022/06/15 08:00:53;;;;;;;3.70;1.77;;;;;;;16.89;50.77;98455.81;1834960;77;20977;-60
2022/06/15 08:03:20;;;;;;;6.00;2.00;;;;;;;16.97;51.19;98447.45;1825075;77;21074;-58
2022/06/15 08:05:49;;;;;;;3.92;1.82;;;;;;;17.07;52.15;98452.55;1819568;77;21722;-63
2022/06/15 08:08:19;;;;;;;4.53;1.72;;;;;;;17.14;50.55;98465.03;1827156;77;21014;-60
2022/06/15 08:10:47;;;;;;;3.37;1.50;;;;;;;17.03;49.75;98467.81;1821184;77;21044;-59
2022/06/15 08:13:14;;;;;;;5.30;1.80;;;;;;;16.86;50.61;98459.73;1835843;77;21086;-58
2022/06/15 08:15:41;;;;;;;3.35;1.47;;;;;;;16.76;50.71;98462.75;1826866;77;20952;-61
2022/06/15 08:18:15;;;;;;;4.17;2.12;;;;;;;16.70;51.78;98470.80;1834768;77;22328;-62
2022/06/15 08:20:46;;;;;;;2.77;1.72;;;;;;;16.69;50.69;98473.25;1822473;77;20995;-62
2022/06/15 08:23:18;;;;;;;4.12;1.70;;;;;;;16.62;52.32;98474.28;1822949;77;21010;-58
2022/06/15 08:25:52;;;;;;;2.87;1.55;;;;;;;16.71;53.01;98477.78;1822195;77;20956;-60
2022/06/15 08:28:23;;;;;;;4.20;1.83;;;;;;;16.96;54.03;98472.91;1822505;77;20939;-59
2022/06/15 08:30:51;;;;;;;6.78;1.87;;;;;;;17.31;51.14;98463.62;1828218;77;21658;-62
2022/06/15 08:33:17;;;;;;;3.65;1.50;;;;;;;17.54;51.46;98462.33;1828010;77;20986;-58
2022/06/15 08:35:47;;;;;;;3.45;1.50;;;;;;;17.66;49.76;98477.32;1824085;77;20993;-63
2022/06/15 08:38:15;;;;;;;4.53;1.72;;;;;;;17.54;48.62;98480.48;1835267;77;20888;-62
2022/06/15 08:41:06;;;;;;;4.25;1.50;;;;;;;17.26;48.68;98485.47;1843611;77;21027;-60
2022/06/15 08:43:50;;;;;;;2.77;1.50;;;;;;;17.07;49.05;98485.02;1767074;79;21120;-67
2022/06/15 08:46:47;;;;;;;4.60;1.70;;;;;;;17.05;50.45;98485.90;1824227;77;20976;-58
2022/06/15 08:50:02;;;;;;;3.70;1.80;;;;;;;17.29;50.43;98471.86;1826402;77;21503;-60
2022/06/15 08:52:40;;;;;;;6.62;1.80;;;;;;;17.64;50.39;98480.92;1826759;77;21065;-61
2022/06/15 08:55:27;;;;;;;3.98;1.50;;;;;;;17.90;50.69;98492.23;1821156;77;21075;-59
2022/06/15 08:58:00;;;;;;;2.27;1.27;;;;;;;17.85;48.49;98488.34;1818726;77;21379;-60
2022/06/15 09:00:34;;;;;;;3.33;1.60;;;;;;;17.55;48.41;98495.05;1825941;77;20831;-56
2022/06/15 09:03:15;;;;;;;3.35;1.40;;;;;;;17.35;48.21;98489.50;1827247;77;21518;-62
2022/06/15 09:06:01;;;;;;;4.08;1.45;;;;;;;17.37;49.17;98482.66;1831006;77;20991;-55
2022/06/15 09:08:39;;;;;;;5.27;1.70;;;;;;;17.60;49.29;98488.11;1833544;77;21070;-58
2022/06/15 09:11:37;;;;;;;5.17;1.67;;;;;;;17.86;47.79;98493.98;1810490;77;21173;-62
2022/06/15 09:14:18;;;;;;;4.95;1.50;;;;;;;17.85;46.21;98497.83;1815429;77;20917;-57
2022/06/15 09:16:52;;;;;;;4.35;1.00;;;;;;;17.65;46.57;98493.36;1819596;77;21003;-63
2022/06/15 09:19:32;;;;;;;3.27;1.20;;;;;;;17.48;46.78;98495.27;1822171;77;21561;-60
2022/06/15 09:22:13;;;;;;;3.58;1.50;;;;;;;17.31;47.41;98493.40;1831282;77;21074;-59
2022/06/15 09:25:04;;;;;;;3.05;1.27;;;;;;;17.20;47.63;98492.16;1830267;77;21079;-62
2022/06/15 09:27:48;;;;;;;6.28;1.20;;;;;;;17.26;48.00;98494.95;1837658;77;21032;-60
2022/06/15 09:30:31;;;;;;;3.72;1.40;;;;;;;17.32;46.84;98503.12;1832355;77;21000;-61
2022/06/15 09:33:21;;;;;;;3.65;1.42;;;;;;;17.34;47.40;98494.12;1782170;78;21083;-64
2022/06/15 09:35:53;;;;;;;5.20;1.30;;;;;;;17.47;48.24;98501.83;1754710;80;21063;-66
2022/06/15 09:38:20;;;;;;;3.45;1.42;;;;;;;17.48;48.70;98496.08;1837143;77;21105;-64
2022/06/15 09:41:04;;;;;;;3.08;1.12;;;;;;;17.53;48.28;98509.48;1846475;77;20986;-65
2022/06/15 09:43:52;;;;;;;3.12;1.10;;;;;;;17.56;48.41;98508.84;1832826;77;20939;-63
2022/06/15 09:46:28;;;;;;;4.53;1.45;;;;;;;17.67;48.49;98504.66;1820666;77;21050;-64
2022/06/15 09:49:24;;;;;;;1.82;1.00;;;;;;;17.77;47.86;98507.58;1834263;77;21490;-62
2022/06/15 09:52:09;;;;;;;3.52;1.15;;;;;;;17.95;47.12;98502.31;1833788;77;21209;-66
2022/06/15 09:54:48;;;;;;;2.22;0.98;;;;;;;18.31;46.84;98489.06;1850268;77;21453;-64
2022/06/15 09:57:15;;;;;;;2.87;1.00;;;;;;;18.64;45.28;98485.12;1832827;77;21124;-61
2022/06/15 09:59:42;;;;;;;2.77;1.20;;;;;;;18.80;44.81;98490.17;1813482;78;20941;-59
2022/06/15 10:02:24;;;;;;;4.47;1.20;;;;;;;18.86;45.20;98490.23;1828517;77;21453;-64
2022/06/15 10:04:51;;;;;;;4.15;1.20;;;;;;;19.00;44.86;98486.67;1835061;77;21660;-65
2022/06/15 10:07:31;;;;;;;4.22;1.40;;;;;;;19.13;44.89;98484.22;1834852;77;21028;-61
2022/06/15 10:10:21;;;;;;;5.60;1.80;;;;;;;19.22;44.77;98488.79;1829199;77;21502;-65
2022/06/15 10:13:06;;;;;;;2.92;1.30;;;;;;;19.26;43.13;98492.41;1829640;77;21096;-67
2022/06/15 10:15:44;;;;;;;4.03;1.37;;;;;;;19.20;42.60;98497.80;1819576;77;20973;-58
2022/06/15 10:18:38;;;;;;;7.20;1.30;;;;;;;19.09;43.61;98500.95;1830565;77;21139;-64
2022/06/15 10:21:19;;;;;;;5.40;1.80;;;;;;;19.01;42.85;98499.09;1835730;77;20924;-58
2022/06/15 10:24:27;;;;;;;6.53;1.40;;;;;;;18.74;42.96;98494.23;1846800;77;20997;-65
2022/06/15 10:27:19;;;;;;;3.55;1.00;;;;;;;18.58;43.59;98487.81;1846577;77;20959;-64
2022/06/15 10:30:16;;;;;;;1.87;1.10;;;;;;;18.47;44.13;98494.73;1828200;77;21522;-60
2022/06/15 10:33:05;;;;;;;2.70;1.00;;;;;;;18.51;45.41;98490.80;1831108;77;21213;-63
2022/06/15 10:35:34;;;;;;;2.55;1.20;;;;;;;18.60;44.04;98490.98;1818120;77;21691;-65
2022/06/15 10:38:04;;;;;;;2.37;0.93;;;;;;;18.66;42.37;98484.22;1830647;77;20980;-61
2022/06/15 10:40:34;;;;;;;2.08;0.98;;;;;;;18.75;42.99;98480.88;1824655;77;21077;-66
2022/06/15 10:43:18;;;;;;;3.40;1.12;;;;;;;18.98;44.52;98484.83;1837392;77;21042;-61
2022/06/15 10:46:04;;;;;;;2.75;0.90;;;;;;;19.27;44.01;98477.13;1846773;77;20966;-66
2022/06/15 10:48:37;;;;;;;2.97;1.10;;;;;;;19.50;41.27;98473.51;1841270;77;20912;-64
2022/06/15 10:51:14;;;;;;;3.90;1.07;;;;;;;19.49;41.89;98483.58;1831766;77;21025;-57
2022/06/15 10:54:16;;;;;;;4.35;1.30;;;;;;;19.43;41.98;98484.13;1847267;77;21482;-63
2022/06/15 11:02:33;;;;;;;5.87;1.25;;;;;;;18.58;42.75;98486.45;1838508;77;21030;-64
2022/06/15 11:05:11;;;;;;;2.55;1.00;;;;;;;18.48;43.73;98480.05;1822848;77;21075;-65
2022/06/15 11:07:59;;;;;;;3.67;1.02;;;;;;;18.59;44.20;98482.59;1817445;77;20969;-61
2022/06/15 11:10:37;;;;;;;3.35;1.15;;;;;;;18.78;42.33;98488.36;1831646;77;21551;-63
2022/06/15 11:13:08;;;;;;;3.45;1.15;;;;;;;18.85;42.32;98485.91;1826366;77;21840;-58
2022/06/15 11:18:50;;;;;;;4.12;1.30;;;;;;;18.82;42.94;98485.20;1821821;77;21452;-64
2022/06/15 11:21:24;;;;;;;2.72;1.17;;;;;;;18.82;42.65;98483.84;1825483;77;21055;-60
2022/06/15 11:24:15;;;;;;;4.50;1.30;;;;;;;18.81;43.93;98491.78;1831558;77;21009;-63
2022/06/15 11:27:03;;;;;;;2.27;1.02;;;;;;;18.85;44.07;98492.69;1826980;77;20963;-61
2022/06/15 11:29:54;;;;;;;2.30;1.00;;;;;;;18.94;43.11;98488.54;1828074;77;20987;-64
2022/06/15 11:32:36;;;;;;;5.53;1.10;;;;;;;18.80;43.16;98491.53;1834457;77;21040;-59
2022/06/15 11:35:38;;;;;;;3.65;1.17;;;;;;;18.68;43.43;98492.81;1806358;77;21006;-60
2022/06/15 11:38:39;;;;;;;3.10;1.07;;;;;;;18.88;43.94;98492.59;1828904;77;21110;-60
2022/06/15 11:41:35;;;;;;;4.90;1.00;;;;;;;19.20;43.74;98488.30;1827472;77;21525;-62
2022/06/15 11:44:09;;;;;;;;;;;;;;;19.61;43.76;98482.80;1825850;77;21047;-60
2022/06/15 11:47:05;;;;;;;3.55;1.00;;;;;;;19.99;42.43;98479.23;1830988;77;20177;-62
2022/06/15 11:49:47;;;;;;;3.52;1.10;;;;;;;20.32;41.73;98485.37;1828562;77;21507;-64
2022/06/15 11:52:35;;;;;;;2.83;1.05;;;;;;;20.67;40.98;98476.67;1833811;77;21118;-60
2022/06/15 11:55:30;;;;;;;1.95;0.70;;;;;;;20.93;37.49;98481.14;1829591;77;21127;-64
2022/06/15 11:58:22;;;;;;;1.62;0.62;;;;;;;20.83;36.10;98482.98;1826972;77;21148;-63
2022/06/15 12:01:03;;;;;;;3.25;0.95;;;;;;;21.03;35.36;98482.02;1770830;77;21506;-61
2022/06/15 12:03:53;;;;;;;1.60;0.82;;;;;;;21.30;36.11;98477.14;1845357;77;21082;-64
2022/06/15 12:07:00;;;;;;;2.08;0.80;;;;;;;21.78;36.31;98474.14;1847226;77;20935;-60
2022/06/15 12:10:08;;;;;;;2.00;0.70;;;;;;;22.26;36.51;98462.63;1787968;77;21003;-61
2022/06/15 12:15:57;;;;;;;4.65;1.10;;;;;;;21.83;36.66;98473.84;1839414;77;20848;-61
2022/06/15 12:19:05;;;;;;;3.12;0.90;;;;;;;21.66;37.48;98475.58;1848034;77;20982;-63
2022/06/15 12:21:51;;;;;;;4.37;1.05;;;;;;;21.65;39.41;98480.80;1811909;78;20959;-59
2022/06/15 12:24:38;;;;;;;1.40;0.80;;;;;;;21.60;38.60;98478.89;1845372;77;21071;-65
2022/06/15 12:27:18;;;;;;;1.95;0.80;;;;;;;21.40;39.55;98476.64;1782088;80;21083;-66
2022/06/15 12:30:08;;;;;;;1.30;0.80;;;;;;;21.18;39.39;98471.75;1833067;77;20892;-62
2022/06/15 12:32:42;;;;;;;2.05;0.90;;;;;;;21.07;40.35;98470.67;1848915;77;21407;-60
2022/06/15 12:35:33;;;;;;;2.02;0.80;;;;;;;21.08;40.75;98472.24;1849520;77;21585;-63
2022/06/15 12:38:44;;;;;;;4.65;1.00;;;;;;;20.99;39.31;98471.57;1849300;77;21443;-64
2022/06/15 12:44:04;;;;;;;2.70;1.05;;;;;;;20.93;40.45;98470.25;1849026;77;20916;-64
2022/06/15 12:46:31;;;;;;;2.15;0.88;;;;;;;21.16;40.85;98469.95;1849323;77;20958;-64
2022/06/15 12:49:33;;;;;;;2.77;0.55;;;;;;;21.49;39.41;98467.73;1849469;77;21378;-60
2022/06/15 12:52:15;;;;;;;1.65;0.72;;;;;;;21.88;41.00;98466.60;1849083;77;21245;-66
2022/06/15 12:55:15;;;;;;;2.15;0.80;;;;;;;22.54;40.56;98467.34;1841377;77;20916;-64
2022/06/15 12:57:59;;;;;;;2.27;0.70;;;;;;;22.65;36.50;98454.77;1849133;77;20958;-61
2022/06/15 13:00:34;;;;;;;2.17;0.80;;;;;;;22.10;36.15;98464.02;1849083;77;20987;-62
2022/06/15 13:03:40;;;;;;;8.60;0.90;;;;;;;21.65;37.80;98458.20;1849086;77;20997;-59
2022/06/15 13:06:29;;;;;;;3.20;0.80;;;;;;;21.86;38.85;98462.08;1849298;77;21333;-65
2022/06/15 13:09:06;;;;;;;2.12;0.70;;;;;;;22.13;36.17;98459.23;1848876;77;20991;-64
2022/06/15 13:11:34;;;;;;;2.08;0.70;;;;;;;22.27;36.85;98455.46;1849448;77;21454;-60
2022/06/15 13:14:15;;;;;;;1.47;0.60;;;;;;;22.47;34.77;98452.18;1811245;77;20939;-59
2022/06/15 13:16:47;;;;;;;1.42;0.60;;;;;;;22.46;34.76;98448.69;1849476;77;20888;-64
2022/06/15 13:19:31;;;;;;;1.82;0.57;;;;;;;22.71;34.94;98446.50;1849367;77;21106;-63
2022/06/15 13:22:11;;;;;;;2.35;0.70;;;;;;;23.08;33.97;98447.64;1844546;77;20900;-59
2022/06/15 13:25:19;;;;;;;1.32;0.60;;;;;;;23.39;33.65;98444.55;1821525;78;20884;-60
2022/06/15 13:28:02;;;;;;;4.15;0.70;;;;;;;23.59;33.91;98443.34;1820807;78;20915;-60
2022/06/15 13:30:31;;;;;;;4.47;0.70;;;;;;;23.69;33.26;98441.38;1821656;78;21002;-64
2022/06/15 13:33:07;;;;;;;0.88;0.45;;;;;;;23.91;32.32;98446.02;1821793;78;21187;-61
2022/06/15 13:35:41;;;;;;;1.87;0.80;;;;;;;23.81;32.28;98437.09;1821426;78;20892;-60
2022/06/15 13:38:27;;;;;;;1.70;0.70;;;;;;;23.67;33.62;98445.05;1820698;78;21419;-64
2022/06/15 13:41:03;;;;;;;2.30;0.72;;;;;;;23.28;31.70;98445.68;1821444;78;20876;-65
2022/06/15 13:43:51;;;;;;;;;;;;;;;22.45;33.38;98459.38;1824363;78;21006;-62
2022/06/15 13:46:27;;;;;;;2.22;0.57;;;;;;;21.81;34.45;98453.53;1821633;78;21117;-60
2022/06/15 13:49:14;;;;;;;2.17;0.70;;;;;;;21.32;35.33;98454.42;1817460;78;20880;-64
2022/06/15 13:51:50;;;;;;;3.58;0.70;;;;;;;21.21;36.31;98446.55;1821621;78;20955;-65
2022/06/15 13:55:03;;;;;;;4.65;0.60;;;;;;;21.74;35.90;98455.52;1821508;78;20909;-63
2022/06/15 13:58:03;;;;;;;4.12;0.90;;;;;;;21.93;35.82;98460.88;1821571;78;21422;-63
2022/06/15 14:00:57;;;;;;;1.45;0.80;;;;;;;21.64;35.82;98457.42;1821580;78;21122;-64
2022/06/15 14:03:51;;;;;;;2.25;0.93;;;;;;;21.23;36.38;98460.61;1821370;78;20912;-63
2022/06/15 14:06:52;;;;;;;1.80;0.70;;;;;;;20.78;36.78;98455.99;1797698;78;20896;-59
2022/06/15 14:09:50;;;;;;;2.58;0.80;;;;;;;20.37;37.86;98452.46;1812668;78;20923;-62
2022/06/15 14:12:32;;;;;;;1.60;0.70;;;;;;;20.09;38.34;98449.43;1838034;77;20883;-63
2022/06/15 14:15:31;;;;;;;1.62;0.70;;;;;;;20.09;39.01;98455.64;1771502;79;21225;-62
2022/06/15 14:18:26;;;;;;;1.65;0.78;;;;;;;20.05;38.27;98453.38;1826259;77;20875;-62
2022/06/15 14:20:52;;;;;;;3.10;0.88;;;;;;;19.92;38.29;98451.81;1849640;77;20918;-62
2022/06/15 14:23:36;;;;;;;2.47;0.80;;;;;;;19.79;38.03;98456.44;1847299;77;21406;-60
2022/06/15 14:26:04;;;;;;;1.00;0.60;;;;;;;19.62;37.31;98453.13;1846675;77;21069;-59
2022/06/15 14:28:31;;;;;;;1.20;0.70;;;;;;;19.46;37.53;98453.00;1846646;77;21035;-58
2022/06/15 14:31:06;;;;;;;1.40;0.70;;;;;;;19.39;38.17;98450.59;1846556;77;20879;-63
2022/06/15 14:33:33;;;;;;;0.98;0.57;;;;;;;19.36;38.54;98445.86;1846565;77;20950;-63
2022/06/15 14:36:18;;;;;;;2.72;0.90;;;;;;;19.46;39.66;98439.97;1838263;77;20926;-61
2022/06/15 14:39:10;;;;;;;2.05;0.85;;;;;;;19.71;38.88;98442.97;1830169;78;20835;-62
2022/06/15 14:41:37;;;;;;;1.98;0.90;;;;;;;20.03;38.75;98437.98;1830179;78;21116;-64
2022/06/15 14:44:22;;;;;;;2.02;0.70;;;;;;;20.72;37.80;98439.13;1830161;78;21432;-59
2022/06/15 14:46:52;;;;;;;1.95;0.57;;;;;;;21.29;37.71;98439.36;1836655;78;21486;-63
2022/06/15 14:49:29;;;;;;;1.60;0.60;;;;;;;21.90;35.42;98437.04;1836630;78;20862;-60
2022/06/15 14:52:27;;;;;;;4.67;0.90;;;;;;;22.30;35.32;98429.41;1830374;78;21457;-62
2022/06/15 14:55:05;;;;;;;1.57;0.70;;;;;;;22.51;34.56;98429.87;1798842;78;21871;-62
2022/06/15 14:57:34;;;;;;;3.58;0.72;;;;;;;22.30;35.01;98429.41;1829478;78;21509;-60
2022/06/15 15:00:12;;;;;;;1.90;0.70;;;;;;;22.05;35.57;98428.03;1830153;78;20914;-61
2022/06/15 15:02:43;;;;;;;2.12;0.90;;;;;;;22.00;35.50;98420.91;1828986;78;20843;-60
2022/06/15 15:05:10;;;;;;;1.40;0.60;;;;;;;22.24;35.69;98425.36;1830283;77;20918;-63
2022/06/15 15:10:43;;;;;;;1.52;0.50;;;;;;;23.00;33.52;98416.45;1830211;78;20923;-65
2022/06/15 15:13:39;;;;;;;2.30;0.80;;;;;;;23.10;32.92;98412.55;1830039;78;20918;-63
2022/06/15 15:16:10;;;;;;;2.50;0.70;;;;;;;23.04;33.29;98417.30;1826315;78;20855;-60
2022/06/15 15:18:48;;;;;;;1.55;0.78;;;;;;;22.87;32.54;98419.14;1830535;78;21290;-62
2022/06/15 15:21:31;;;;;;;1.75;0.60;;;;;;;22.29;33.56;98425.08;1830017;78;21104;-63
2022/06/15 15:24:03;;;;;;;1.90;0.75;;;;;;;21.66;34.08;98422.42;1842997;77;20870;-63
2022/06/15 15:26:40;;;;;;;3.85;0.68;;;;;;;21.15;35.13;98426.14;1853126;77;20868;-63
2022/06/15 15:35:25;;;;;;;6.15;0.80;;;;;;;20.34;36.56;98421.89;1858632;77;21244;-60
2022/06/15 15:37:51;;;;;;;2.30;0.90;;;;;;;20.20;37.29;98413.27;1860018;77;21478;-62
2022/06/15 15:40:23;;;;;;;1.95;0.90;;;;;;;20.08;38.20;98416.00;1858791;77;20872;-67
2022/06/15 15:42:52;;;;;;;3.95;0.90;;;;;;;19.99;38.31;98410.46;1858713;77;21447;-65
2022/06/15 15:45:21;;;;;;;2.42;0.80;;;;;;;19.85;38.76;98418.97;1859019;77;21545;-63
2022/06/15 15:47:49;;;;;;;2.33;0.90;;;;;;;19.65;39.08;98421.20;1858655;77;21212;-63
2022/06/15 15:50:17;;;;;;;1.20;0.70;;;;;;;19.47;39.51;98419.84;1858767;77;21391;-61
2022/06/15 15:52:44;;;;;;;2.80;0.88;;;;;;;19.43;40.02;98413.50;1858645;77;20872;-62
2022/06/15 15:55:13;;;;;;;8.05;1.00;;;;;;;19.43;40.16;98410.20;1858620;77;21008;-64
2022/06/15 15:57:42;;;;;;;1.90;0.90;;;;;;;19.48;40.61;98415.98;1858647;77;20935;-64
2022/06/15 16:00:11;;;;;;;3.17;1.00;;;;;;;19.41;40.17;98415.19;1858960;77;21047;-67
2022/06/15 16:02:40;;;;;;;1.75;0.88;;;;;;;19.33;40.32;98417.98;1858694;77;20907;-65
2022/06/15 16:05:08;;;;;;;1.98;0.98;;;;;;;19.20;40.70;98414.44;1858779;77;20863;-64
2022/06/15 16:07:34;;;;;;;1.85;0.90;;;;;;;19.10;40.59;98414.29;1858953;77;20923;-65
2022/06/15 16:10:06;;;;;;;4.95;0.98;;;;;;;19.09;40.74;98407.30;1858677;77;20939;-61
2022/06/15 16:12:33;;;;;;;3.42;1.02;;;;;;;19.20;41.38;98412.27;1859055;77;21028;-61
2022/06/15 16:15:00;;;;;;;3.62;1.17;;;;;;;19.28;40.63;98401.34;1858050;77;20958;-65
2022/06/15 16:17:29;;;;;;;5.30;0.90;;;;;;;19.26;41.02;98398.73;1858781;77;20856;-69
2022/06/15 16:19:57;;;;;;;3.87;0.98;;;;;;;19.16;41.19;98404.58;1858630;77;20887;-63
2022/06/15 16:22:23;;;;;;;6.50;1.32;;;;;;;19.01;41.95;98407.36;1858103;77;21045;-66
2022/06/15 16:24:51;;;;;;;4.72;1.00;;;;;;;18.89;42.47;98410.83;1855031;77;21199;-64
